x

Matinicus Rock, Me (mism1) Weather Station

5:00am - Sun 22nd Jan 2017 All times are EST. -5 hours from GMT.

  • Wind
    20mph, 21mph gusts
  • Air Temp 38°f
  • Sea Pressure 1007.5mb
  • Matinicus Rock, Me
  • Matinicus Rock, Me

More Historic Weather Station data

Upgrade to MSW Pro to gain access to the past 30 days of data for over 8000 Wavebouys and Weather Stations around the globe.

Join Pro

Comparision Forecast

View Surf forecast
   
Sun 01/22 5:00am 20 21 mph 1007.5mb 38f
4:00am 16 17 mph 1006.9mb 41f
3:00am 6
mph
1006.5mb 42f
2:00am 3
mph
1006.9mb 43f
1:00am 8
mph
1006.8mb 43f
12:00am 6
mph
1006mb 42f
Sat 01/21 11:00pm 7
mph
1006.8mb 42f
10:00pm 6
mph
1006.6mb 41f
9:00pm 5 6 mph 1006.7mb 41f
8:00pm 2
mph
1007mb 40f
7:00pm 1 2 mph 1006.8mb 40f
6:00pm 5
mph
1006.3mb 40f
5:00pm 8
mph
1006.2mb 40f
4:00pm 8
mph
1005.6mb 40f
3:00pm 10 11 mph 1005.5mb 39f
2:00pm 8
mph
1005.6mb 39f
1:00pm 7 8 mph 1006mb 38f
12:00pm 11 13 mph 1006.7mb 37f
11:00am 11 13 mph 1008.1mb 38f
10:00am 18 20 mph 1009.1mb 41f
9:00am 18 20 mph 1009.2mb 41f
8:00am 16 17 mph 1009.4mb 40f
7:00am 11 14 mph 1009.5mb 41f
6:00am 16 17 mph 1010mb 41f
5:00am 16 20 mph 1010.2mb 41f
4:00am 16 17 mph 1010.7mb 40f
3:00am 11 13 mph 1011.5mb 39f
2:00am 15 16 mph 1012.2mb 40f
1:00am 16 20 mph 1012mb 40f
12:00am 13 17 mph 1012.2mb 39f
Fri 01/20 11:00pm 9 11 mph 1013mb 39f
10:00pm 11 14 mph 1013.5mb 39f
9:00pm 6 9 mph 1013.5mb 39f
8:00pm 3 6 mph 1013.9mb 39f
7:00pm 5 7 mph 1014mb 38f
6:00pm 6 7 mph 1014.2mb 38f
5:00pm 1 2 mph 1014mb 38f
4:00pm 3 5 mph 1014.2mb 40f
3:00pm 3 5 mph 1014.1mb 38f
2:00pm 6 7 mph 1014.3mb 38f
1:00pm 6 8 mph 1014.5mb 39f
12:00pm 8 10 mph 1014.9mb 38f
11:00am 14 16 mph 1015.5mb 37f
10:00am 15 16 mph 1015.8mb 38f
9:00am 14 15 mph 1015.8mb 37f
8:00am 16 17 mph 1015.9mb 37f
7:00am 13 14 mph 1015.7mb 37f
6:00am 13 14 mph 1015.1mb 38f
5:00am 15 16 mph 1014mb 37f
4:00am 20 23 mph 1013.8mb 37f
3:00am 23 24 mph 1014mb 37f
2:00am 22 24 mph 1014.1mb 37f
1:00am 22 26 mph 1014.7mb 37f
12:00am 15 16 mph 1015mb 38f
Thu 01/19 11:00pm 15 16 mph 1014.9mb 38f
10:00pm 18 21 mph 1014.6mb 39f
9:00pm 13 14 mph 1014.4mb 38f
8:00pm 15 16 mph 1014mb 38f
7:00pm 16 17 mph 1013.6mb 39f
6:00pm 11 14 mph 1013.3mb 39f
5:00pm 14 15 mph 1012.6mb 39f
4:00pm 16 17 mph 1012.2mb 39f
3:00pm 15 16 mph 1012.2mb 38f
2:00pm 11 13 mph 1012.1mb 36f
1:00pm 16 18 mph 1012.6mb 35f
12:00pm 15 16 mph 1012.5mb 37f
11:00am 8 10 mph 1013.5mb 37f
10:00am 13 14 mph 1014.5mb 37f
9:00am 9 10 mph 1014.6mb 38f
8:00am 6 7 mph 1014.6mb 37f
7:00am 8 9 mph 1014.6mb 37f
6:00am 11 13 mph 1014.5mb 37f
5:00am 9 10 mph 1014.6mb 36f
4:00am 7 8 mph 1014.9mb 36f
3:00am 10
mph
1015.1mb 37f
2:00am 14 15 mph 1014.8mb 37f
1:00am 13 14 mph 1015.5mb 37f
12:00am 13 15 mph 1015.7mb 37f
Wed 01/18 11:00pm 17 18 mph 1015.7mb 36f
10:00pm 16 18 mph 1016.9mb 36f
9:00pm 16 18 mph 1017.2mb 35f
8:00pm 20 23 mph 1017.6mb 35f
7:00pm 22 24 mph 1018mb 35f
6:00pm 23 25 mph 1017.7mb 35f
5:00pm 24 26 mph 1017.2mb 34f
4:00pm 26 29 mph 1017.3mb 34f
3:00pm 25 29 mph 1017.6mb 33f
2:00pm 24 28 mph 1017mb 34f
1:00pm 26 29 mph 1016.9mb 34f
12:00pm 28 31 mph 1017mb 34f